Time;durP1;ratioP1;P1;durP2;ratioP2;P2;SDS_P1;SDS_P2;PMS_P1;PMS_P2;Temp;Humidity;BMP_temperature;BMP_pressure;BME280_temperature;BME280_humidity;BME280_pressure;Samples;Min_cycle;Max_cycle;Signal;HPM_P1;HPM_P2
2021/10/16 00:02:17;;;;;;;23.50;9.25;;;4.70;99.90;;;;;;5075184;28;20401;-59
2021/10/16 00:04:42;;;;;;;17.80;9.10;;;4.70;99.90;;;;;;5079215;28;20032;-60
2021/10/16 00:07:08;;;;;;;22.05;8.80;;;4.70;99.90;;;;;;5073034;28;20024;-60
2021/10/16 00:09:33;;;;;;;15.30;7.43;;;4.70;99.90;;;;;;5076920;28;20043;-58
2021/10/16 00:11:59;;;;;;;14.80;7.50;;;4.70;99.90;;;;;;5079870;28;20028;-60
2021/10/16 00:14:25;;;;;;;20.77;7.32;;;4.70;99.90;;;;;;5080304;28;20749;-57
2021/10/16 00:16:50;;;;;;;15.77;6.50;;;4.60;99.90;;;;;;5083620;28;20032;-60
2021/10/16 00:19:16;;;;;;;21.92;6.28;;;4.50;99.90;;;;;;5086584;28;20027;-60
2021/10/16 00:21:41;;;;;;;68.55;7.13;;;4.50;99.90;;;;;;5091080;28;20039;-58
2021/10/16 00:24:07;;;;;;;88.97;8.57;;;4.50;99.90;;;;;;5088367;28;20478;-57
2021/10/16 00:26:33;;;;;;;155.77;7.70;;;4.40;99.90;;;;;;5086559;28;20480;-59
2021/10/16 00:28:59;;;;;;;163.93;8.38;;;4.30;99.90;;;;;;5084162;28;20104;-58
2021/10/16 00:31:24;;;;;;;67.32;6.28;;;4.20;99.90;;;;;;5086548;28;20469;-60
2021/10/16 00:33:50;;;;;;;108.10;7.35;;;4.10;99.90;;;;;;5080658;28;20479;-60
2021/10/16 00:36:16;;;;;;;88.88;6.75;;;4.00;99.90;;;;;;5086564;28;20048;-58
2021/10/16 00:38:41;;;;;;;8.30;3.58;;;4.00;99.90;;;;;;5089836;28;20040;-60
2021/10/16 00:41:09;;;;;;;26.10;3.80;;;4.00;99.90;;;;;;5089956;28;20024;-58
2021/10/16 00:43:34;;;;;;;16.40;3.85;;;4.00;99.90;;;;;;5090071;28;20028;-60
2021/10/16 00:46:00;;;;;;;11.30;3.78;;;4.00;99.90;;;;;;5090575;28;20035;-58
2021/10/16 00:48:25;;;;;;;25.17;4.10;;;3.90;99.90;;;;;;5090182;28;20078;-58
2021/10/16 00:50:51;;;;;;;5.55;3.65;;;3.90;99.90;;;;;;5090967;28;20122;-58
2021/10/16 00:53:17;;;;;;;5.97;3.53;;;3.90;99.90;;;;;;5090302;28;20111;-59
2021/10/16 00:55:43;;;;;;;5.38;3.63;;;3.90;99.90;;;;;;5088079;28;20123;-60
2021/10/16 00:58:10;;;;;;;5.25;3.67;;;3.80;99.90;;;;;;5085048;28;20498;-60
2021/10/16 01:00:36;;;;;;;4.65;3.28;;;3.70;99.90;;;;;;5090041;28;20533;-60
2021/10/16 01:03:02;;;;;;;5.35;4.07;;;3.70;99.90;;;;;;5089372;28;20111;-60
2021/10/16 01:05:28;;;;;;;5.15;3.53;;;3.60;99.90;;;;;;5077335;28;20051;-59
2021/10/16 01:07:53;;;;;;;7.32;3.72;;;3.60;99.90;;;;;;5074972;28;20107;-60
2021/10/16 01:10:19;;;;;;;6.50;3.47;;;3.60;99.90;;;;;;5083757;28;20565;-60
2021/10/16 01:12:45;;;;;;;8.73;4.50;;;3.50;99.90;;;;;;5076328;28;20036;-60
2021/10/16 01:15:16;;;;;;;8.73;4.07;;;3.50;99.90;;;;;;5081619;28;20081;-60
2021/10/16 01:17:45;;;;;;;6.40;3.95;;;3.50;99.90;;;;;;5076770;28;20409;-59
2021/10/16 01:20:20;;;;;;;8.55;3.47;;;3.50;99.90;;;;;;5077195;28;20029;-60
2021/10/16 01:22:48;;;;;;;28.63;3.95;;;3.50;99.90;;;;;;5075761;28;20582;-59
2021/10/16 01:25:16;;;;;;;89.43;6.22;;;3.60;99.90;;;;;;5080959;28;20031;-60
2021/10/16 01:27:42;;;;;;;70.88;5.15;;;3.60;99.90;;;;;;5081660;28;20389;-59
2021/10/16 01:30:10;;;;;;;131.05;7.72;;;3.50;99.90;;;;;;5078076;28;20031;-60
2021/10/16 01:32:37;;;;;;;33.75;3.80;;;3.60;99.90;;;;;;5077478;28;20051;-59
2021/10/16 01:35:05;;;;;;;8.82;3.30;;;3.60;99.90;;;;;;5075659;28;20039;-60
2021/10/16 01:37:31;;;;;;;18.23;3.50;;;3.60;99.90;;;;;;5081829;28;20043;-59
2021/10/16 01:39:56;;;;;;;34.00;4.07;;;3.60;99.90;;;;;;5089075;28;20028;-60
2021/10/16 01:42:22;;;;;;;85.07;6.18;;;3.60;99.90;;;;;;5082551;28;20031;-55
2021/10/16 01:44:48;;;;;;;90.28;6.75;;;3.60;99.90;;;;;;5078744;28;20405;-60
2021/10/16 01:47:13;;;;;;;105.10;7.03;;;3.50;99.90;;;;;;5085358;28;20111;-60
2021/10/16 01:49:39;;;;;;;69.13;6.78;;;3.50;99.90;;;;;;5084889;28;20075;-59
2021/10/16 01:52:05;;;;;;;15.30;4.00;;;3.50;99.90;;;;;;5087633;28;20032;-57
2021/10/16 01:54:31;;;;;;;13.45;3.03;;;3.40;99.90;;;;;;5089624;28;20034;-59
2021/10/16 01:56:56;;;;;;;5.28;2.60;;;3.40;99.90;;;;;;5089300;28;20028;-60
2021/10/16 01:59:24;;;;;;;18.73;3.45;;;3.30;99.90;;;;;;5083465;28;20040;-59
2021/10/16 02:01:50;;;;;;;8.10;3.20;;;3.30;99.90;;;;;;5086148;28;20040;-59
2021/10/16 02:04:16;;;;;;;27.60;4.15;;;3.30;99.90;;;;;;5088860;28;20089;-60
2021/10/16 02:06:42;;;;;;;110.18;7.63;;;3.30;99.90;;;;;;5086610;28;20131;-60
2021/10/16 02:09:08;;;;;;;102.10;5.85;;;3.20;99.90;;;;;;5087904;28;20070;-60
2021/10/16 02:11:34;;;;;;;77.03;6.03;;;3.20;99.90;;;;;;5089719;28;20080;-59
2021/10/16 02:14:00;;;;;;;48.35;4.50;;;3.20;99.90;;;;;;5089584;28;20093;-58
2021/10/16 02:16:26;;;;;;;36.25;3.75;;;3.20;99.90;;;;;;5088604;28;20036;-56
2021/10/16 02:18:52;;;;;;;117.68;7.13;;;3.20;99.90;;;;;;5089789;28;20020;-60
2021/10/16 02:21:18;;;;;;;163.88;7.95;;;3.30;99.90;;;;;;5092631;28;20020;-59
2021/10/16 02:23:44;;;;;;;134.90;7.97;;;3.30;99.90;;;;;;5093537;28;20038;-60
2021/10/16 02:26:10;;;;;;;242.07;10.73;;;3.20;99.90;;;;;;5088184;28;20028;-58
2021/10/16 02:28:35;;;;;;;284.67;12.23;;;3.20;99.90;;;;;;5092774;28;20507;-60
2021/10/16 02:31:01;;;;;;;147.80;7.45;;;3.30;99.90;;;;;;5089102;28;20144;-60
2021/10/16 02:33:26;;;;;;;295.95;15.25;;;3.30;99.90;;;;;;5087445;28;20049;-59
2021/10/16 02:35:52;;;;;;;647.58;29.42;;;3.40;99.90;;;;;;5090655;28;20046;-59
2021/10/16 02:38:17;;;;;;;411.58;13.55;;;3.40;99.90;;;;;;5087567;28;20024;-59
2021/10/16 02:40:43;;;;;;;441.17;20.50;;;3.40;99.90;;;;;;5088755;28;20043;-60
2021/10/16 02:43:09;;;;;;;451.80;22.02;;;3.40;99.90;;;;;;5091984;28;20035;-58
2021/10/16 02:45:34;;;;;;;589.40;24.17;;;3.40;99.90;;;;;;5090017;28;20036;-59
2021/10/16 02:48:00;;;;;;;214.45;12.23;;;3.50;99.90;;;;;;5088843;28;20031;-60
2021/10/16 02:50:26;;;;;;;207.77;10.32;;;3.50;99.90;;;;;;5088338;28;20038;-55
2021/10/16 02:52:51;;;;;;;416.55;14.48;;;3.40;99.90;;;;;;5089219;28;20040;-60
2021/10/16 02:55:17;;;;;;;251.45;12.48;;;3.40;99.90;;;;;;5087545;28;20138;-59
2021/10/16 02:57:43;;;;;;;285.55;12.20;;;3.50;99.90;;;;;;5084503;28;20046;-60
2021/10/16 03:00:10;;;;;;;489.05;18.50;;;3.40;99.90;;;;;;5090538;28;20039;-59
2021/10/16 03:02:35;;;;;;;283.73;12.48;;;3.40;99.90;;;;;;5092379;28;20028;-60
2021/10/16 03:05:02;;;;;;;171.80;9.43;;;3.30;99.90;;;;;;5090230;28;20500;-60
2021/10/16 03:07:27;;;;;;;232.55;11.43;;;3.30;99.90;;;;;;5092446;28;20174;-60
2021/10/16 03:09:53;;;;;;;264.75;10.55;;;3.30;99.90;;;;;;5093036;28;20800;-58
2021/10/16 03:12:18;;;;;;;315.33;13.77;;;3.20;99.90;;;;;;5092769;28;20455;-59
2021/10/16 03:14:44;;;;;;;307.38;14.57;;;3.20;99.90;;;;;;5091719;28;20032;-59
2021/10/16 03:17:10;;;;;;;160.40;7.32;;;3.20;99.90;;;;;;5090952;28;20039;-59
2021/10/16 03:19:35;;;;;;;174.25;7.45;;;3.20;99.90;;;;;;5091093;28;20483;-60
2021/10/16 03:22:01;;;;;;;153.23;9.07;;;3.20;99.90;;;;;;5089337;28;20034;-57
2021/10/16 03:24:26;;;;;;;48.10;4.22;;;3.20;99.90;;;;;;5091652;28;20089;-54
2021/10/16 03:26:52;;;;;;;106.20;5.72;;;3.20;99.90;;;;;;5090254;28;20028;-59
2021/10/16 03:29:18;;;;;;;142.85;7.47;;;3.20;99.90;;;;;;5089364;28;20543;-59
2021/10/16 03:31:43;;;;;;;144.50;5.82;;;3.20;99.90;;;;;;5090537;28;20055;-59
2021/10/16 03:34:09;;;;;;;343.92;13.55;;;3.20;99.90;;;;;;5089902;28;20035;-60
2021/10/16 03:36:35;;;;;;;195.30;10.23;;;3.20;99.90;;;;;;5083258;28;20062;-58
2021/10/16 03:39:02;;;;;;;217.50;11.55;;;3.20;99.90;;;;;;5090804;28;20077;-57
2021/10/16 03:41:27;;;;;;;157.52;6.88;;;3.20;99.90;;;;;;5086656;28;20634;-58
2021/10/16 03:43:53;;;;;;;468.52;18.45;;;3.20;99.90;;;;;;5083038;28;20050;-59
2021/10/16 03:46:18;;;;;;;229.80;11.93;;;3.20;99.90;;;;;;5089199;28;20028;-58
2021/10/16 03:48:44;;;;;;;365.17;13.50;;;3.20;99.90;;;;;;5085639;28;20036;-58
2021/10/16 03:51:10;;;;;;;253.40;10.27;;;3.20;99.90;;;;;;5086631;28;20089;-58
2021/10/16 03:53:35;;;;;;;90.15;5.82;;;3.20;99.90;;;;;;5085319;28;20042;-57
2021/10/16 03:56:01;;;;;;;306.15;13.52;;;3.20;99.90;;;;;;5087453;28;20025;-57
2021/10/16 03:58:26;;;;;;;101.32;6.40;;;3.20;99.90;;;;;;5090938;28;20028;-55
2021/10/16 04:00:57;;;;;;;322.73;11.85;;;3.30;99.90;;;;;;5087664;28;20044;-57
2021/10/16 04:03:23;;;;;;;448.95;16.92;;;3.30;99.90;;;;;;5087888;28;20080;-57
2021/10/16 04:05:48;;;;;;;100.95;7.07;;;3.20;99.90;;;;;;5091324;28;20036;-57
2021/10/16 04:08:14;;;;;;;316.30;12.60;;;3.20;99.90;;;;;;5091283;28;20102;-58
2021/10/16 04:10:39;;;;;;;172.90;8.85;;;3.20;99.90;;;;;;5088843;28;20032;-57
2021/10/16 04:13:05;;;;;;;180.25;10.30;;;3.30;99.90;;;;;;5088831;28;20624;-56
2021/10/16 04:15:30;;;;;;;194.35;9.05;;;3.30;99.90;;;;;;5091135;28;20046;-57
2021/10/16 04:17:56;;;;;;;104.20;5.65;;;3.30;99.90;;;;;;5088256;28;20459;-58
2021/10/16 04:20:22;;;;;;;134.57;9.40;;;3.30;99.90;;;;;;5090990;28;20020;-57
2021/10/16 04:22:48;;;;;;;197.95;9.13;;;3.30;99.90;;;;;;5085426;28;20115;-58
2021/10/16 04:25:14;;;;;;;183.25;9.65;;;3.20;99.90;;;;;;5078218;28;20481;-58
2021/10/16 04:27:39;;;;;;;217.00;9.70;;;3.20;99.90;;;;;;5088086;28;20024;-59
2021/10/16 04:30:05;;;;;;;398.05;15.85;;;3.20;99.90;;;;;;5089277;28;20035;-58
2021/10/16 04:32:35;;;;;;;250.23;9.63;;;3.10;99.90;;;;;;5085585;28;20489;-59
2021/10/16 04:35:02;;;;;;;163.52;9.48;;;3.10;99.90;;;;;;5091005;28;20028;-59
2021/10/16 04:37:27;;;;;;;129.82;9.07;;;3.20;99.90;;;;;;5090198;28;20028;-58
2021/10/16 04:39:53;;;;;;;412.65;15.20;;;3.20;99.90;;;;;;5089336;28;20035;-56
2021/10/16 04:42:19;;;;;;;90.20;6.57;;;3.20;99.90;;;;;;5083875;28;20736;-59
2021/10/16 04:44:44;;;;;;;132.70;6.47;;;3.20;99.90;;;;;;5085304;28;20024;-57
2021/10/16 04:47:10;;;;;;;244.02;10.48;;;3.20;99.90;;;;;;5089541;28;20035;-57
2021/10/16 04:49:36;;;;;;;143.20;7.03;;;3.20;99.90;;;;;;5084426;28;20055;-58
2021/10/16 04:52:03;;;;;;;185.38;9.60;;;3.10;99.90;;;;;;5089011;28;20074;-58
2021/10/16 04:54:29;;;;;;;228.93;9.68;;;3.10;99.90;;;;;;5088378;28;20020;-57
2021/10/16 04:56:55;;;;;;;99.57;5.18;;;3.10;99.90;;;;;;5086870;28;20493;-56
2021/10/16 04:59:21;;;;;;;359.77;15.20;;;3.10;99.90;;;;;;5079918;28;20400;-57
2021/10/16 05:01:46;;;;;;;392.00;18.05;;;3.00;99.90;;;;;;5083376;28;20063;-58
2021/10/16 05:04:12;;;;;;;237.43;9.05;;;3.10;99.90;;;;;;5088669;28;20063;-57
2021/10/16 05:06:37;;;;;;;163.65;10.32;;;3.10;99.90;;;;;;5090461;28;20028;-58
2021/10/16 05:09:03;;;;;;;91.10;5.82;;;3.10;99.90;;;;;;5088848;28;20470;-58
2021/10/16 05:11:28;;;;;;;172.35;9.02;;;3.10;99.90;;;;;;5084774;28;20084;-58
2021/10/16 05:13:54;;;;;;;117.20;6.47;;;3.10;99.90;;;;;;5089507;28;20028;-57
2021/10/16 05:16:20;;;;;;;394.27;14.98;;;3.10;99.90;;;;;;5086813;28;20028;-59
2021/10/16 05:18:46;;;;;;;353.08;15.73;;;3.10;99.90;;;;;;5089247;28;20059;-55
2021/10/16 05:21:13;;;;;;;545.92;17.95;;;3.10;99.90;;;;;;5087482;28;20024;-56
2021/10/16 05:23:39;;;;;;;533.05;20.00;;;3.10;99.90;;;;;;5083626;28;20024;-59
2021/10/16 05:26:04;;;;;;;313.80;16.83;;;3.10;99.90;;;;;;5087387;28;20154;-58
2021/10/16 05:28:30;;;;;;;275.20;12.75;;;3.10;99.90;;;;;;5087523;28;20107;-58
2021/10/16 05:30:55;;;;;;;360.75;15.05;;;3.20;99.90;;;;;;5089369;28;20027;-58
2021/10/16 05:33:21;;;;;;;455.77;15.45;;;3.20;99.90;;;;;;5080791;28;20482;-58
2021/10/16 05:35:47;;;;;;;450.13;21.05;;;3.30;99.90;;;;;;5089574;28;20027;-58
2021/10/16 05:38:12;;;;;;;173.07;8.98;;;3.30;99.90;;;;;;5083730;28;20074;-59
2021/10/16 05:40:39;;;;;;;663.33;26.42;;;3.40;99.90;;;;;;5082949;28;20024;-58
2021/10/16 05:43:05;;;;;;;418.50;16.35;;;3.30;99.90;;;;;;5087317;28;20028;-58
2021/10/16 05:45:31;;;;;;;277.95;10.07;;;3.30;99.90;;;;;;5089072;28;20039;-58
2021/10/16 05:47:56;;;;;;;241.50;9.73;;;3.30;99.90;;;;;;5085634;28;20016;-59
2021/10/16 05:50:22;;;;;;;373.92;14.73;;;3.30;99.90;;;;;;5083340;28;20032;-58
2021/10/16 05:52:47;;;;;;;119.07;4.95;;;3.20;99.90;;;;;;5088405;28;20028;-59
2021/10/16 05:55:13;;;;;;;327.27;10.88;;;3.20;99.90;;;;;;5089764;28;20389;-58
2021/10/16 05:57:38;;;;;;;151.50;6.25;;;3.20;99.90;;;;;;5087120;28;20059;-57
2021/10/16 06:00:05;;;;;;;213.10;10.57;;;3.10;99.90;;;;;;5088487;28;20074;-58
2021/10/16 06:02:30;;;;;;;242.88;9.57;;;3.10;99.90;;;;;;5088991;28;20081;-59
2021/10/16 06:04:57;;;;;;;124.10;6.75;;;3.00;99.90;;;;;;5085246;28;20427;-58
2021/10/16 06:07:22;;;;;;;65.97;4.60;;;3.00;99.90;;;;;;5082691;28;20027;-58
2021/10/16 06:09:48;;;;;;;86.30;5.10;;;3.00;99.90;;;;;;5081488;28;20401;-59
2021/10/16 06:12:13;;;;;;;52.13;5.35;;;3.00;99.90;;;;;;5088354;28;20389;-59
2021/10/16 06:14:39;;;;;;;18.60;4.25;;;3.00;99.90;;;;;;5085685;28;20070;-58
2021/10/16 06:17:05;;;;;;;93.05;6.80;;;3.00;99.90;;;;;;5087390;28;20044;-58
2021/10/16 06:19:31;;;;;;;171.48;8.43;;;3.00;99.90;;;;;;5088473;28;20477;-59
2021/10/16 06:21:58;;;;;;;40.17;5.90;;;3.00;99.90;;;;;;5088662;28;20067;-59
2021/10/16 06:24:24;;;;;;;83.75;7.88;;;3.00;99.90;;;;;;5089025;28;20016;-58
2021/10/16 06:26:49;;;;;;;81.65;6.93;;;3.00;99.90;;;;;;5088791;28;20032;-58
2021/10/16 06:29:15;;;;;;;118.43;6.78;;;3.10;99.90;;;;;;5088052;28;20514;-59
2021/10/16 06:31:40;;;;;;;62.75;4.25;;;3.10;99.90;;;;;;5086742;28;20028;-60
2021/10/16 06:34:07;;;;;;;127.50;7.65;;;3.20;99.90;;;;;;5089379;28;20020;-59
2021/10/16 06:36:33;;;;;;;258.17;11.20;;;3.20;99.90;;;;;;5079692;28;20036;-58
2021/10/16 06:38:59;;;;;;;153.77;10.00;;;3.30;99.90;;;;;;5080617;28;20039;-57
2021/10/16 06:41:25;;;;;;;397.15;22.67;;;3.30;99.90;;;;;;5087062;28;20546;-60
2021/10/16 06:43:51;;;;;;;328.05;16.45;;;3.40;99.90;;;;;;5082437;28;20036;-58
2021/10/16 06:46:16;;;;;;;132.52;10.77;;;3.40;99.90;;;;;;5084610;28;20031;-59
2021/10/16 06:48:42;;;;;;;251.98;9.75;;;3.50;99.90;;;;;;5085951;28;20496;-59
2021/10/16 06:51:08;;;;;;;95.25;7.07;;;3.60;99.90;;;;;;5086725;28;20021;-58
2021/10/16 06:53:34;;;;;;;174.40;10.00;;;3.60;99.90;;;;;;5084813;28;20546;-58
2021/10/16 06:55:59;;;;;;;137.23;9.60;;;3.70;99.90;;;;;;5087360;28;20032;-59
2021/10/16 06:58:25;;;;;;;268.42;12.43;;;3.80;99.90;;;;;;5087895;28;20082;-59
2021/10/16 07:00:51;;;;;;;148.23;10.30;;;3.90;99.90;;;;;;5004286;28;20727;-58
2021/10/16 07:03:16;;;;;;;153.00;8.55;;;4.00;99.90;;;;;;5086838;28;20032;-60
2021/10/16 07:05:42;;;;;;;122.80;7.32;;;4.10;99.90;;;;;;5087378;28;20409;-59
2021/10/16 07:08:08;;;;;;;301.85;15.57;;;4.10;99.90;;;;;;5083009;28;20023;-60
2021/10/16 07:10:34;;;;;;;138.05;7.30;;;4.10;99.90;;;;;;5090656;28;20035;-59
2021/10/16 07:13:03;;;;;;;161.05;7.18;;;4.20;99.90;;;;;;5081498;28;20078;-58
2021/10/16 07:15:29;;;;;;;459.10;22.70;;;4.30;99.90;;;;;;5084922;28;20028;-59
2021/10/16 07:17:55;;;;;;;98.25;5.45;;;4.20;99.90;;;;;;5090422;28;20077;-58
2021/10/16 07:20:20;;;;;;;117.88;7.07;;;4.40;99.90;;;;;;5091948;28;20429;-56
2021/10/16 07:22:46;;;;;;;192.75;10.68;;;4.50;99.90;;;;;;5088791;28;20031;-59
2021/10/16 07:25:12;;;;;;;390.55;15.10;;;4.50;99.90;;;;;;5084855;28;20435;-59
2021/10/16 07:27:38;;;;;;;151.10;6.85;;;4.40;99.90;;;;;;5083648;28;20029;-59
2021/10/16 07:30:05;;;;;;;79.95;4.85;;;4.50;99.90;;;;;;5091034;28;20426;-59
2021/10/16 07:32:31;;;;;;;272.10;9.13;;;4.70;99.90;;;;;;5089615;28;20050;-59
2021/10/16 07:34:56;;;;;;;283.17;11.70;;;4.80;99.90;;;;;;5087923;28;20024;-60
2021/10/16 07:37:22;;;;;;;119.45;5.78;;;4.90;99.90;;;;;;5088453;28;20237;-59
2021/10/16 07:39:48;;;;;;;256.15;10.23;;;4.90;99.90;;;;;;5090429;28;20101;-59
2021/10/16 07:42:13;;;;;;;175.90;8.68;;;5.00;99.90;;;;;;5090346;28;20067;-59
2021/10/16 07:44:39;;;;;;;62.28;5.20;;;5.10;99.90;;;;;;5091358;28;20039;-59
2021/10/16 07:47:05;;;;;;;53.35;4.85;;;5.30;99.90;;;;;;5088062;28;20028;-59
2021/10/16 07:49:31;;;;;;;70.22;4.13;;;5.50;99.90;;;;;;5086759;28;20094;-60
2021/10/16 07:51:57;;;;;;;47.30;4.15;;;5.50;99.90;;;;;;5083917;28;20020;-59
2021/10/16 07:54:22;;;;;;;21.13;3.05;;;5.60;99.90;;;;;;5090722;28;20099;-60
2021/10/16 07:56:48;;;;;;;3.75;2.42;;;5.80;99.90;;;;;;5086755;28;20079;-60
2021/10/16 07:59:14;;;;;;;3.63;2.40;;;5.70;99.90;;;;;;5087029;28;20089;-59
2021/10/16 08:01:40;;;;;;;4.95;3.28;;;5.90;99.90;;;;;;5069055;28;20056;-60
2021/10/16 08:04:06;;;;;;;4.75;3.35;;;5.90;99.90;;;;;;5090211;28;20028;-59
2021/10/16 08:06:32;;;;;;;5.25;2.35;;;5.90;99.90;;;;;;5087867;28;20740;-59
2021/10/16 08:08:57;;;;;;;3.80;2.20;;;6.00;99.90;;;;;;5090587;28;20048;-60
2021/10/16 08:11:23;;;;;;;4.30;2.60;;;6.20;99.90;;;;;;5090146;28;20016;-59
2021/10/16 08:13:48;;;;;;;3.75;2.47;;;6.20;99.90;;;;;;5084977;28;20024;-59
2021/10/16 08:16:14;;;;;;;4.28;2.50;;;6.40;99.90;;;;;;5082709;28;20044;-60
2021/10/16 08:18:40;;;;;;;7.68;3.00;;;6.50;99.90;;;;;;5086892;28;20036;-60
2021/10/16 08:21:05;;;;;;;5.35;2.70;;;6.60;99.90;;;;;;5090236;28;20042;-60
2021/10/16 08:23:31;;;;;;;3.53;2.70;;;6.60;99.90;;;;;;5087263;28;20063;-59
2021/10/16 08:25:59;;;;;;;7.93;3.92;;;6.60;99.90;;;;;;5090202;28;20035;-60
2021/10/16 08:28:28;;;;;;;6.53;2.92;;;6.50;99.90;;;;;;5083126;28;20048;-59
2021/10/16 08:30:54;;;;;;;4.43;2.63;;;6.60;99.90;;;;;;5088981;28;20027;-61
2021/10/16 08:33:22;;;;;;;3.83;2.88;;;6.80;99.90;;;;;;5090297;28;20486;-60
2021/10/16 08:35:48;;;;;;;4.70;3.13;;;7.00;99.90;;;;;;5088269;28;20090;-59
2021/10/16 08:38:14;;;;;;;7.88;2.95;;;7.10;99.90;;;;;;5084417;28;20474;-60
2021/10/16 08:40:41;;;;;;;4.90;3.10;;;7.00;99.90;;;;;;5080065;28;20028;-61
2021/10/16 08:43:07;;;;;;;5.75;3.00;;;7.20;99.90;;;;;;5088843;28;20614;-60
2021/10/16 08:45:34;;;;;;;6.15;3.47;;;7.50;99.90;;;;;;5088897;28;20043;-60
2021/10/16 08:48:04;;;;;;;5.93;3.70;;;7.60;99.90;;;;;;5089375;28;20020;-61
2021/10/16 08:50:31;;;;;;;9.90;3.42;;;7.60;99.90;;;;;;5081780;28;20020;-56
2021/10/16 08:52:57;;;;;;;7.68;3.15;;;7.70;99.90;;;;;;5085430;28;20124;-60
2021/10/16 08:55:22;;;;;;;5.80;3.38;;;7.80;99.90;;;;;;5087396;28;20017;-61
2021/10/16 08:57:50;;;;;;;6.47;3.22;;;7.80;99.90;;;;;;5085396;28;20032;-59
2021/10/16 09:00:53;;;;;;;4.88;3.00;;;7.80;99.90;;;;;;5083833;28;20105;-60
2021/10/16 09:03:19;;;;;;;3.67;3.00;;;8.00;99.90;;;;;;5083929;28;20040;-60
2021/10/16 09:06:06;;;;;;;4.03;3.30;;;8.10;99.90;;;;;;5077393;28;20028;-59
2021/10/16 09:08:45;;;;;;;7.43;3.90;;;8.50;99.90;;;;;;5086190;28;20477;-59
2021/10/16 09:11:17;;;;;;;7.68;3.55;;;8.30;99.90;;;;;;5077913;28;20485;-59
2021/10/16 09:13:45;;;;;;;5.55;3.80;;;8.30;99.90;;;;;;5082801;28;20099;-61
2021/10/16 09:16:22;;;;;;;4.38;3.55;;;8.40;99.90;;;;;;5089281;28;20560;-60
2021/10/16 09:19:13;;;;;;;4.03;3.03;;;8.70;99.90;;;;;;5083239;28;20039;-60
2021/10/16 09:22:04;;;;;;;5.65;3.45;;;9.00;99.90;;;;;;5088866;28;20054;-60
2021/10/16 09:24:35;;;;;;;9.90;4.53;;;8.90;99.90;;;;;;5084919;28;20024;-58
2021/10/16 09:27:09;;;;;;;7.35;3.58;;;8.90;99.90;;;;;;5085141;28;20137;-60
2021/10/16 09:29:40;;;;;;;6.45;4.18;;;9.40;99.90;;;;;;5089005;28;20032;-59
2021/10/16 09:32:10;;;;;;;36.60;5.15;;;9.50;99.90;;;;;;5077807;28;20047;-58
2021/10/16 09:34:44;;;;;;;6.65;4.40;;;9.30;99.90;;;;;;5082676;28;20031;-60
2021/10/16 09:37:18;;;;;;;5.78;4.00;;;9.20;99.90;;;;;;5086124;28;20063;-59
2021/10/16 09:39:49;;;;;;;4.82;3.67;;;9.20;99.90;;;;;;5070798;28;20111;-59
2021/10/16 09:42:44;;;;;;;10.57;4.72;;;9.50;99.90;;;;;;5067387;28;20103;-61
2021/10/16 09:45:12;;;;;;;;;;;9.20;99.90;;;;;;5064310;28;20090;-60
2021/10/16 09:47:55;;;;;;;8.40;4.20;;;9.50;99.90;;;;;;5064279;28;19908;-60
2021/10/16 09:50:20;;;;;;;9.05;4.43;;;9.60;99.90;;;;;;5061524;28;20044;-60
2021/10/16 09:52:48;;;;;;;7.32;4.35;;;9.70;99.90;;;;;;5064139;28;20029;-60
2021/10/16 09:55:14;;;;;;;10.32;4.18;;;9.90;99.90;;;;;;5067756;28;20036;-59
2021/10/16 09:57:41;;;;;;;7.22;5.00;;;10.10;99.90;;;;;;5065268;28;20040;-58
2021/10/16 10:00:07;;;;;;;14.93;6.43;;;9.80;99.90;;;;;;5069570;28;20107;-60
2021/10/16 10:02:33;;;;;;;8.98;5.88;;;9.70;99.90;;;;;;5044862;28;20056;-58
2021/10/16 10:05:03;;;;;;;7.25;4.60;;;9.70;99.90;;;;;;5068694;28;20045;-59
2021/10/16 10:07:32;;;;;;;7.13;5.15;;;10.00;99.90;;;;;;5056897;28;20021;-59
2021/10/16 10:09:59;;;;;;;8.60;4.43;;;10.00;99.90;;;;;;5066500;28;20040;-60
2021/10/16 10:12:25;;;;;;;10.00;5.75;;;10.10;99.90;;;;;;5065161;28;20075;-61
2021/10/16 10:14:51;;;;;;;8.55;5.80;;;9.80;99.90;;;;;;5068938;28;20052;-60
2021/10/16 10:17:29;;;;;;;7.93;5.22;;;9.70;99.90;;;;;;5068657;28;20048;-61
2021/10/16 10:20:13;;;;;;;9.18;5.38;;;9.70;99.90;;;;;;5064662;28;20017;-59
2021/10/16 10:22:42;;;;;;;;;;;9.90;99.90;;;;;;5061857;28;20595;-59
2021/10/16 10:25:23;;;;;;;9.25;5.97;;;9.70;99.90;;;;;;5065566;28;19935;-60
2021/10/16 10:27:49;;;;;;;9.95;6.28;;;9.70;99.90;;;;;;5061019;28;20116;-60
2021/10/16 10:30:36;;;;;;;11.77;6.53;;;10.00;99.90;;;;;;5065911;28;21702;-59
2021/10/16 10:33:20;;;;;;;10.45;6.90;;;10.20;99.90;;;;;;5061744;28;20533;-61
2021/10/16 10:36:00;;;;;;;12.48;6.05;;;10.20;99.90;;;;;;5067823;28;20555;-59
2021/10/16 10:38:37;;;;;;;12.55;6.28;;;10.30;99.90;;;;;;5062010;28;20033;-59
2021/10/16 10:41:23;;;;;;;11.63;5.63;;;10.40;99.90;;;;;;5072395;28;20036;-60
2021/10/16 10:43:52;;;;;;;8.68;5.72;;;10.60;99.90;;;;;;5057672;28;20509;-60
2021/10/16 10:46:22;;;;;;;11.65;6.10;;;10.60;99.90;;;;;;5072754;28;20025;-59
2021/10/16 10:48:49;;;;;;;10.65;6.07;;;10.60;99.90;;;;;;5071319;28;20532;-61
2021/10/16 10:51:38;;;;;;;12.32;6.38;;;10.80;99.90;;;;;;5067571;28;20024;-60
2021/10/16 10:54:15;;;;;;;20.50;7.32;;;10.90;99.90;;;;;;5067777;28;20501;-59
2021/10/16 10:56:44;;;;;;;15.57;6.97;;;11.10;99.90;;;;;;5072120;28;20120;-59
2021/10/16 10:59:12;;;;;;;17.23;6.45;;;11.10;99.90;;;;;;5072487;28;20040;-60
2021/10/16 11:01:52;;;;;;;16.10;5.45;;;11.10;99.90;;;;;;5056690;28;20041;-61
2021/10/16 11:04:37;;;;;;;15.93;5.68;;;11.10;99.90;;;;;;5065281;28;20417;-59
2021/10/16 11:07:06;;;;;;;20.25;5.05;;;11.10;99.90;;;;;;5071417;28;20440;-60
2021/10/16 11:09:32;;;;;;;13.07;4.85;;;11.20;99.90;;;;;;5069114;28;20021;-61
2021/10/16 11:11:59;;;;;;;12.20;5.05;;;11.30;99.90;;;;;;5071361;28;20032;-61
2021/10/16 11:14:32;;;;;;;16.92;6.03;;;11.40;99.90;;;;;;5071662;28;20398;-60
2021/10/16 11:17:12;;;;;;;20.70;6.30;;;11.40;99.90;;;;;;5071956;28;20044;-61
2021/10/16 11:19:50;;;;;;;16.92;4.90;;;11.30;99.90;;;;;;5068890;28;20043;-61
2021/10/16 11:22:15;;;;;;;16.77;4.97;;;11.30;99.90;;;;;;5063681;28;20025;-61
2021/10/16 11:24:41;;;;;;;11.65;4.13;;;11.40;99.90;;;;;;5067199;28;20028;-60
2021/10/16 11:27:07;;;;;;;17.63;5.88;;;11.50;99.90;;;;;;5068361;28;20039;-60
2021/10/16 11:29:36;;;;;;;15.93;4.97;;;11.50;99.90;;;;;;5069053;28;20025;-61
2021/10/16 11:32:24;;;;;;;13.32;4.72;;;11.50;99.90;;;;;;5070930;28;20559;-61
2021/10/16 11:35:08;;;;;;;12.80;5.22;;;11.50;99.90;;;;;;5068114;28;20035;-58
2021/10/16 11:37:54;;;;;;;17.20;4.38;;;11.50;99.90;;;;;;5070477;28;20456;-61
2021/10/16 11:40:25;;;;;;;14.70;3.65;;;11.60;99.90;;;;;;5071367;28;20858;-61
2021/10/16 11:42:57;;;;;;;10.48;4.40;;;11.60;99.90;;;;;;5072145;28;20037;-60
2021/10/16 11:45:27;;;;;;;14.57;3.75;;;11.60;99.90;;;;;;5071769;28;20103;-61
2021/10/16 11:47:56;;;;;;;9.20;4.15;;;11.70;99.90;;;;;;5067654;28;20031;-61
2021/10/16 11:50:34;;;;;;;11.75;4.10;;;11.70;99.90;;;;;;5060402;28;20021;-61
2021/10/16 11:53:14;;;;;;;11.90;4.88;;;11.70;99.90;;;;;;5063589;28;20436;-61
2021/10/16 11:56:02;;;;;;;13.27;4.70;;;11.80;99.90;;;;;;5071201;28;20031;-61
2021/10/16 11:58:29;;;;;;;17.40;4.30;;;11.90;99.90;;;;;;5057134;28;20040;-60
2021/10/16 12:00:57;;;;;;;13.68;4.18;;;11.80;99.90;;;;;;5066440;28;20055;-61
2021/10/16 12:03:51;;;;;;;15.68;4.53;;;11.80;99.90;;;;;;5066009;28;20119;-61
2021/10/16 12:06:18;;;;;;;11.40;3.95;;;11.90;99.90;;;;;;5070804;28;20055;-61
2021/10/16 12:08:51;;;;;;;12.55;3.03;;;11.80;99.90;;;;;;5071357;28;20545;-60
2021/10/16 12:11:18;;;;;;;14.60;3.53;;;11.80;99.90;;;;;;5071080;28;20032;-61
2021/10/16 12:13:53;;;;;;;14.38;4.00;;;11.70;99.90;;;;;;5071750;28;20027;-61
2021/10/16 12:16:21;;;;;;;10.75;4.22;;;11.70;99.90;;;;;;5070641;28;20025;-60
2021/10/16 12:18:54;;;;;;;6.68;2.58;;;11.70;99.90;;;;;;5071205;28;20112;-60
2021/10/16 12:21:34;;;;;;;8.10;2.53;;;11.70;99.90;;;;;;5070830;28;20482;-60
2021/10/16 12:24:11;;;;;;;15.38;3.47;;;11.70;99.90;;;;;;5070627;28;20047;-61
2021/10/16 12:26:38;;;;;;;12.27;3.35;;;11.70;99.90;;;;;;5067115;28;20517;-60
2021/10/16 12:29:08;;;;;;;12.00;2.90;;;11.70;99.90;;;;;;5052368;28;20482;-61
2021/10/16 12:31:51;;;;;;;13.68;2.72;;;11.70;99.90;;;;;;5067109;28;20543;-60
2021/10/16 12:34:22;;;;;;;10.63;2.65;;;11.70;99.90;;;;;;5063083;28;20111;-61
2021/10/16 12:36:59;;;;;;;16.17;3.00;;;11.70;99.90;;;;;;5070373;28;20044;-61
2021/10/16 12:39:31;;;;;;;6.72;1.83;;;11.70;99.30;;;;;;5070343;28;20017;-65
2021/10/16 12:42:05;;;;;;;7.95;2.35;;;11.60;97.40;;;;;;5066174;28;20032;-61
2021/10/16 12:44:36;;;;;;;8.52;2.28;;;11.60;99.50;;;;;;5070038;28;20032;-57
2021/10/16 12:47:28;;;;;;;9.05;2.40;;;11.60;99.90;;;;;;5068832;28;20551;-66
2021/10/16 12:49:57;;;;;;;10.40;1.83;;;11.60;97.60;;;;;;5068951;28;20016;-60